sensor_id;sensor_type;location;lat;lon;timestamp;P1;durP1;ratioP1;P2;durP2;ratioP2
19560;SDS011;9927;47.792;10.616;2023-05-02T03:01:19;6.15;;;4.43;;
19560;SDS011;9927;47.792;10.616;2023-05-02T03:03:48;5.95;;;4.38;;
19560;SDS011;9927;47.792;10.616;2023-05-02T03:06:17;5.40;;;4.20;;
19560;SDS011;9927;47.792;10.616;2023-05-02T03:08:45;4.53;;;3.92;;
19560;SDS011;9927;47.792;10.616;2023-05-02T03:11:12;4.85;;;4.05;;
19560;SDS011;9927;47.792;10.616;2023-05-02T03:13:39;4.00;;;3.72;;
19560;SDS011;9927;47.792;10.616;2023-05-02T03:16:26;9.93;;;5.97;;
19560;SDS011;9927;47.792;10.616;2023-05-02T03:18:56;5.97;;;4.10;;
19560;SDS011;9927;47.792;10.616;2023-05-02T03:21:23;7.72;;;4.28;;
19560;SDS011;9927;47.792;10.616;2023-05-02T03:23:50;6.18;;;4.00;;
19560;SDS011;9927;47.792;10.616;2023-05-02T03:26:18;3.50;;;3.20;;
19560;SDS011;9927;47.792;10.616;2023-05-02T03:28:45;6.07;;;3.97;;
19560;SDS011;9927;47.792;10.616;2023-05-02T03:31:12;5.93;;;3.92;;
19560;SDS011;9927;47.792;10.616;2023-05-02T03:33:43;5.20;;;4.00;;
19560;SDS011;9927;47.792;10.616;2023-05-02T03:36:10;4.63;;;4.00;;
19560;SDS011;9927;47.792;10.616;2023-05-02T03:38:37;4.85;;;3.90;;
19560;SDS011;9927;47.792;10.616;2023-05-02T03:41:05;6.32;;;4.13;;
19560;SDS011;9927;47.792;10.616;2023-05-02T03:43:33;6.03;;;4.32;;
19560;SDS011;9927;47.792;10.616;2023-05-02T03:46:04;10.00;;;5.00;;
19560;SDS011;9927;47.792;10.616;2023-05-02T03:48:33;5.25;;;3.95;;
19560;SDS011;9927;47.792;10.616;2023-05-02T03:51:02;6.68;;;5.07;;
19560;SDS011;9927;47.792;10.616;2023-05-02T03:53:30;6.07;;;5.00;;
19560;SDS011;9927;47.792;10.616;2023-05-02T03:55:57;5.45;;;4.45;;
19560;SDS011;9927;47.792;10.616;2023-05-02T03:58:25;6.82;;;4.10;;
19560;SDS011;9927;47.792;10.616;2023-05-02T04:00:52;5.13;;;4.00;;
19560;SDS011;9927;47.792;10.616;2023-05-02T04:03:20;12.23;;;5.03;;
19560;SDS011;9927;47.792;10.616;2023-05-02T04:05:48;6.63;;;4.13;;
19560;SDS011;9927;47.792;10.616;2023-05-02T04:08:17;3.63;;;3.40;;
19560;SDS011;9927;47.792;10.616;2023-05-02T04:10:45;6.43;;;4.47;;
19560;SDS011;9927;47.792;10.616;2023-05-02T04:13:12;3.60;;;3.30;;
19560;SDS011;9927;47.792;10.616;2023-05-02T04:15:39;7.95;;;4.20;;
19560;SDS011;9927;47.792;10.616;2023-05-02T04:18:06;6.18;;;4.03;;
19560;SDS011;9927;47.792;10.616;2023-05-02T04:20:34;9.35;;;3.95;;
19560;SDS011;9927;47.792;10.616;2023-05-02T04:23:01;5.05;;;3.80;;
19560;SDS011;9927;47.792;10.616;2023-05-02T04:25:28;5.50;;;3.50;;
19560;SDS011;9927;47.792;10.616;2023-05-02T04:27:56;5.80;;;3.85;;
19560;SDS011;9927;47.792;10.616;2023-05-02T04:30:23;6.25;;;4.20;;
19560;SDS011;9927;47.792;10.616;2023-05-02T04:32:50;4.60;;;3.58;;
19560;SDS011;9927;47.792;10.616;2023-05-02T04:35:18;8.07;;;4.35;;
19560;SDS011;9927;47.792;10.616;2023-05-02T04:37:45;5.07;;;3.70;;
19560;SDS011;9927;47.792;10.616;2023-05-02T04:40:13;6.97;;;4.35;;
19560;SDS011;9927;47.792;10.616;2023-05-02T04:42:40;5.45;;;3.95;;
19560;SDS011;9927;47.792;10.616;2023-05-02T04:45:07;5.57;;;3.95;;
19560;SDS011;9927;47.792;10.616;2023-05-02T04:47:35;5.75;;;3.97;;
19560;SDS011;9927;47.792;10.616;2023-05-02T04:50:02;6.57;;;4.10;;
19560;SDS011;9927;47.792;10.616;2023-05-02T04:52:30;5.43;;;3.83;;
19560;SDS011;9927;47.792;10.616;2023-05-02T04:54:57;6.78;;;4.20;;
19560;SDS011;9927;47.792;10.616;2023-05-02T04:57:24;5.95;;;4.00;;
19560;SDS011;9927;47.792;10.616;2023-05-02T04:59:52;5.53;;;4.07;;
19560;SDS011;9927;47.792;10.616;2023-05-02T05:02:19;10.88;;;5.35;;
19560;SDS011;9927;47.792;10.616;2023-05-02T05:04:46;15.75;;;5.28;;
19560;SDS011;9927;47.792;10.616;2023-05-02T05:07:14;4.00;;;3.70;;
19560;SDS011;9927;47.792;10.616;2023-05-02T05:09:41;6.10;;;4.28;;
19560;SDS011;9927;47.792;10.616;2023-05-02T05:12:08;6.30;;;4.18;;
19560;SDS011;9927;47.792;10.616;2023-05-02T05:14:35;6.72;;;4.40;;
19560;SDS011;9927;47.792;10.616;2023-05-02T05:17:02;5.90;;;4.20;;
19560;SDS011;9927;47.792;10.616;2023-05-02T05:19:30;5.70;;;4.32;;
19560;SDS011;9927;47.792;10.616;2023-05-02T05:21:57;5.80;;;4.35;;
19560;SDS011;9927;47.792;10.616;2023-05-02T05:24:24;6.88;;;4.55;;
19560;SDS011;9927;47.792;10.616;2023-05-02T05:26:51;5.18;;;4.35;;
19560;SDS011;9927;47.792;10.616;2023-05-02T05:29:19;6.28;;;4.38;;
19560;SDS011;9927;47.792;10.616;2023-05-02T05:31:46;7.72;;;4.43;;
19560;SDS011;9927;47.792;10.616;2023-05-02T05:34:13;5.47;;;4.50;;
19560;SDS011;9927;47.792;10.616;2023-05-02T05:36:41;5.57;;;4.47;;
19560;SDS011;9927;47.792;10.616;2023-05-02T05:39:08;8.82;;;5.07;;
19560;SDS011;9927;47.792;10.616;2023-05-02T05:41:36;10.02;;;5.60;;
19560;SDS011;9927;47.792;10.616;2023-05-02T05:44:04;6.38;;;4.60;;
19560;SDS011;9927;47.792;10.616;2023-05-02T05:46:31;6.05;;;4.75;;
19560;SDS011;9927;47.792;10.616;2023-05-02T05:48:59;5.07;;;4.57;;
19560;SDS011;9927;47.792;10.616;2023-05-02T05:51:27;6.75;;;4.90;;
19560;SDS011;9927;47.792;10.616;2023-05-02T05:53:54;4.63;;;4.22;;
19560;SDS011;9927;47.792;10.616;2023-05-02T05:56:21;5.38;;;4.85;;
19560;SDS011;9927;47.792;10.616;2023-05-02T05:58:48;6.63;;;5.00;;
19560;SDS011;9927;47.792;10.616;2023-05-02T06:01:16;6.32;;;4.93;;
19560;SDS011;9927;47.792;10.616;2023-05-02T06:03:43;5.65;;;4.82;;
19560;SDS011;9927;47.792;10.616;2023-05-02T06:06:10;4.88;;;4.47;;
19560;SDS011;9927;47.792;10.616;2023-05-02T06:08:38;5.10;;;4.60;;
19560;SDS011;9927;47.792;10.616;2023-05-02T06:11:08;7.75;;;5.00;;
19560;SDS011;9927;47.792;10.616;2023-05-02T06:13:37;4.90;;;4.30;;
19560;SDS011;9927;47.792;10.616;2023-05-02T06:16:04;4.97;;;4.57;;
19560;SDS011;9927;47.792;10.616;2023-05-02T06:18:32;5.80;;;4.60;;
19560;SDS011;9927;47.792;10.616;2023-05-02T06:21:05;7.72;;;4.30;;
19560;SDS011;9927;47.792;10.616;2023-05-02T06:23:33;5.00;;;4.60;;
19560;SDS011;9927;47.792;10.616;2023-05-02T06:26:01;4.80;;;4.07;;
19560;SDS011;9927;47.792;10.616;2023-05-02T06:28:29;4.47;;;4.18;;
19560;SDS011;9927;47.792;10.616;2023-05-02T06:33:29;5.57;;;4.93;;
19560;SDS011;9927;47.792;10.616;2023-05-02T06:35:57;5.80;;;4.75;;
19560;SDS011;9927;47.792;10.616;2023-05-02T06:38:27;5.50;;;4.95;;
19560;SDS011;9927;47.792;10.616;2023-05-02T06:40:54;4.93;;;4.50;;
19560;SDS011;9927;47.792;10.616;2023-05-02T06:43:21;4.75;;;4.40;;
19560;SDS011;9927;47.792;10.616;2023-05-02T06:45:51;6.43;;;5.30;;
19560;SDS011;9927;47.792;10.616;2023-05-02T06:48:20;7.20;;;5.72;;
19560;SDS011;9927;47.792;10.616;2023-05-02T06:50:48;10.95;;;6.50;;
19560;SDS011;9927;47.792;10.616;2023-05-02T06:53:16;6.70;;;5.95;;
19560;SDS011;9927;47.792;10.616;2023-05-02T06:55:44;12.68;;;7.38;;
19560;SDS011;9927;47.792;10.616;2023-05-02T06:58:12;7.32;;;5.95;;
19560;SDS011;9927;47.792;10.616;2023-05-02T07:00:39;16.83;;;8.48;;
19560;SDS011;9927;47.792;10.616;2023-05-02T07:03:08;9.88;;;6.35;;
19560;SDS011;9927;47.792;10.616;2023-05-02T07:05:37;7.13;;;5.88;;
19560;SDS011;9927;47.792;10.616;2023-05-02T07:08:04;11.77;;;7.10;;
19560;SDS011;9927;47.792;10.616;2023-05-02T07:10:32;13.88;;;8.10;;
19560;SDS011;9927;47.792;10.616;2023-05-02T07:12:59;7.47;;;6.78;;
19560;SDS011;9927;47.792;10.616;2023-05-02T07:15:26;14.27;;;8.30;;
19560;SDS011;9927;47.792;10.616;2023-05-02T07:17:53;8.60;;;7.70;;
19560;SDS011;9927;47.792;10.616;2023-05-02T07:20:21;13.57;;;7.97;;
19560;SDS011;9927;47.792;10.616;2023-05-02T07:22:49;9.48;;;6.72;;
19560;SDS011;9927;47.792;10.616;2023-05-02T07:25:16;8.48;;;7.15;;
19560;SDS011;9927;47.792;10.616;2023-05-02T07:27:44;11.68;;;8.23;;
19560;SDS011;9927;47.792;10.616;2023-05-02T07:30:11;10.75;;;8.40;;
19560;SDS011;9927;47.792;10.616;2023-05-02T07:32:39;9.48;;;8.50;;
19560;SDS011;9927;47.792;10.616;2023-05-02T07:35:07;8.45;;;7.53;;
19560;SDS011;9927;47.792;10.616;2023-05-02T07:37:34;9.60;;;8.07;;
19560;SDS011;9927;47.792;10.616;2023-05-02T07:40:02;7.78;;;7.18;;
19560;SDS011;9927;47.792;10.616;2023-05-02T07:42:30;9.45;;;8.50;;
19560;SDS011;9927;47.792;10.616;2023-05-02T07:44:58;9.63;;;8.48;;
19560;SDS011;9927;47.792;10.616;2023-05-02T07:47:25;10.25;;;8.75;;
19560;SDS011;9927;47.792;10.616;2023-05-02T07:49:53;10.50;;;8.40;;
19560;SDS011;9927;47.792;10.616;2023-05-02T07:52:21;8.32;;;7.47;;
19560;SDS011;9927;47.792;10.616;2023-05-02T07:54:49;11.00;;;8.57;;
19560;SDS011;9927;47.792;10.616;2023-05-02T07:57:17;9.30;;;7.75;;
19560;SDS011;9927;47.792;10.616;2023-05-02T07:59:44;8.55;;;7.60;;
19560;SDS011;9927;47.792;10.616;2023-05-02T08:02:11;9.45;;;7.93;;
19560;SDS011;9927;47.792;10.616;2023-05-02T08:04:39;9.88;;;8.93;;
19560;SDS011;9927;47.792;10.616;2023-05-02T08:07:07;10.30;;;9.18;;
19560;SDS011;9927;47.792;10.616;2023-05-02T08:09:34;9.15;;;8.38;;
19560;SDS011;9927;47.792;10.616;2023-05-02T08:12:01;8.65;;;7.80;;
19560;SDS011;9927;47.792;10.616;2023-05-02T08:14:29;9.13;;;8.23;;
19560;SDS011;9927;47.792;10.616;2023-05-02T08:16:57;8.30;;;7.60;;
19560;SDS011;9927;47.792;10.616;2023-05-02T08:19:25;9.02;;;8.13;;
19560;SDS011;9927;47.792;10.616;2023-05-02T08:21:53;9.15;;;8.23;;
19560;SDS011;9927;47.792;10.616;2023-05-02T08:24:21;9.02;;;8.13;;
19560;SDS011;9927;47.792;10.616;2023-05-02T08:26:48;8.25;;;7.55;;
19560;SDS011;9927;47.792;10.616;2023-05-02T08:29:16;7.72;;;7.13;;
19560;SDS011;9927;47.792;10.616;2023-05-02T08:31:43;7.90;;;7.22;;
19560;SDS011;9927;47.792;10.616;2023-05-02T08:34:11;7.68;;;7.07;;
19560;SDS011;9927;47.792;10.616;2023-05-02T08:36:38;9.73;;;8.93;;
19560;SDS011;9927;47.792;10.616;2023-05-02T08:39:05;8.65;;;7.75;;
19560;SDS011;9927;47.792;10.616;2023-05-02T08:41:33;8.85;;;8.05;;
19560;SDS011;9927;47.792;10.616;2023-05-02T08:44:01;9.82;;;8.82;;
19560;SDS011;9927;47.792;10.616;2023-05-02T08:46:29;11.20;;;8.88;;
19560;SDS011;9927;47.792;10.616;2023-05-02T08:48:58;9.07;;;8.23;;
19560;SDS011;9927;47.792;10.616;2023-05-02T08:51:26;10.45;;;9.38;;
19560;SDS011;9927;47.792;10.616;2023-05-02T08:53:55;9.30;;;8.50;;
19560;SDS011;9927;47.792;10.616;2023-05-02T08:56:23;8.00;;;7.30;;
19560;SDS011;9927;47.792;10.616;2023-05-02T08:58:51;7.97;;;7.28;;
19560;SDS011;9927;47.792;10.616;2023-05-02T09:01:21;8.23;;;7.53;;
19560;SDS011;9927;47.792;10.616;2023-05-02T09:03:49;9.32;;;8.23;;
19560;SDS011;9927;47.792;10.616;2023-05-02T09:06:18;9.25;;;8.05;;
19560;SDS011;9927;47.792;10.616;2023-05-02T09:08:48;11.18;;;8.18;;
19560;SDS011;9927;47.792;10.616;2023-05-02T09:11:18;9.60;;;8.70;;
19560;SDS011;9927;47.792;10.616;2023-05-02T09:13:47;9.18;;;8.25;;
19560;SDS011;9927;47.792;10.616;2023-05-02T09:16:23;9.60;;;8.00;;
19560;SDS011;9927;47.792;10.616;2023-05-02T09:18:56;10.35;;;8.95;;
19560;SDS011;9927;47.792;10.616;2023-05-02T09:21:25;9.07;;;8.10;;
19560;SDS011;9927;47.792;10.616;2023-05-02T09:24:01;10.00;;;9.00;;
19560;SDS011;9927;47.792;10.616;2023-05-02T09:26:39;9.35;;;8.50;;
19560;SDS011;9927;47.792;10.616;2023-05-02T09:29:06;8.95;;;8.15;;
19560;SDS011;9927;47.792;10.616;2023-05-02T09:31:34;12.80;;;9.57;;
19560;SDS011;9927;47.792;10.616;2023-05-02T09:34:09;9.30;;;8.40;;
19560;SDS011;9927;47.792;10.616;2023-05-02T09:36:40;8.93;;;7.80;;
19560;SDS011;9927;47.792;10.616;2023-05-02T09:39:13;8.50;;;7.72;;
19560;SDS011;9927;47.792;10.616;2023-05-02T09:41:45;10.05;;;8.35;;
19560;SDS011;9927;47.792;10.616;2023-05-02T09:44:14;9.13;;;8.00;;
19560;SDS011;9927;47.792;10.616;2023-05-02T09:46:47;9.93;;;8.55;;
19560;SDS011;9927;47.792;10.616;2023-05-02T09:49:16;8.80;;;7.57;;
19560;SDS011;9927;47.792;10.616;2023-05-02T09:51:45;10.00;;;8.57;;
19560;SDS011;9927;47.792;10.616;2023-05-02T09:54:13;8.90;;;8.15;;
19560;SDS011;9927;47.792;10.616;2023-05-02T09:57:03;12.32;;;10.10;;
19560;SDS011;9927;47.792;10.616;2023-05-02T09:59:30;12.30;;;9.68;;
19560;SDS011;9927;47.792;10.616;2023-05-02T10:01:58;11.48;;;10.25;;
19560;SDS011;9927;47.792;10.616;2023-05-02T10:04:28;12.50;;;11.00;;
19560;SDS011;9927;47.792;10.616;2023-05-02T10:06:57;13.07;;;11.70;;
19560;SDS011;9927;47.792;10.616;2023-05-02T10:09:25;15.15;;;13.55;;
19560;SDS011;9927;47.792;10.616;2023-05-02T10:11:55;17.88;;;15.77;;
19560;SDS011;9927;47.792;10.616;2023-05-02T10:14:23;19.27;;;15.93;;
19560;SDS011;9927;47.792;10.616;2023-05-02T10:20:18;23.05;;;16.92;;
19560;SDS011;9927;47.792;10.616;2023-05-02T10:22:29;18.60;;;15.70;;
19560;SDS011;9927;47.792;10.616;2023-05-02T10:24:57;17.60;;;15.57;;
19560;SDS011;9927;47.792;10.616;2023-05-02T10:27:28;19.85;;;16.45;;
19560;SDS011;9927;47.792;10.616;2023-05-02T10:29:57;18.35;;;16.27;;
19560;SDS011;9927;47.792;10.616;2023-05-02T10:32:28;20.85;;;16.55;;
19560;SDS011;9927;47.792;10.616;2023-05-02T10:34:56;21.65;;;16.83;;
19560;SDS011;9927;47.792;10.616;2023-05-02T10:37:28;22.77;;;18.05;;
19560;SDS011;9927;47.792;10.616;2023-05-02T10:39:59;26.70;;;18.45;;
19560;SDS011;9927;47.792;10.616;2023-05-02T10:42:27;19.90;;;17.60;;
19560;SDS011;9927;47.792;10.616;2023-05-02T10:44:55;19.15;;;16.35;;
19560;SDS011;9927;47.792;10.616;2023-05-02T10:47:24;21.00;;;16.90;;
19560;SDS011;9927;47.792;10.616;2023-05-02T10:49:56;18.77;;;16.05;;
19560;SDS011;9927;47.792;10.616;2023-05-02T10:52:31;21.10;;;17.42;;
19560;SDS011;9927;47.792;10.616;2023-05-02T10:55:13;17.80;;;15.90;;
19560;SDS011;9927;47.792;10.616;2023-05-02T11:00:27;21.80;;;18.17;;
19560;SDS011;9927;47.792;10.616;2023-05-02T11:02:55;19.52;;;16.98;;
19560;SDS011;9927;47.792;10.616;2023-05-02T11:05:23;19.33;;;15.88;;
19560;SDS011;9927;47.792;10.616;2023-05-02T11:11:23;20.20;;;16.85;;
19560;SDS011;9927;47.792;10.616;2023-05-02T11:14:04;19.63;;;16.90;;
19560;SDS011;9927;47.792;10.616;2023-05-02T11:19:27;18.98;;;16.98;;
19560;SDS011;9927;47.792;10.616;2023-05-02T11:24:43;18.20;;;16.33;;
19560;SDS011;9927;47.792;10.616;2023-05-02T11:27:35;18.52;;;15.80;;
19560;SDS011;9927;47.792;10.616;2023-05-02T11:30:04;16.40;;;14.70;;
19560;SDS011;9927;47.792;10.616;2023-05-02T11:35:18;20.10;;;17.13;;
19560;SDS011;9927;47.792;10.616;2023-05-02T11:37:53;16.25;;;14.60;;
19560;SDS011;9927;47.792;10.616;2023-05-02T11:40:21;17.67;;;15.98;;
19560;SDS011;9927;47.792;10.616;2023-05-02T11:42:49;16.63;;;14.63;;
19560;SDS011;9927;47.792;10.616;2023-05-02T11:45:16;19.13;;;16.90;;
19560;SDS011;9927;47.792;10.616;2023-05-02T11:47:44;17.58;;;15.77;;
19560;SDS011;9927;47.792;10.616;2023-05-02T11:50:13;16.08;;;14.38;;
19560;SDS011;9927;47.792;10.616;2023-05-02T11:52:42;15.82;;;14.13;;
19560;SDS011;9927;47.792;10.616;2023-05-02T11:55:11;13.80;;;12.40;;
19560;SDS011;9927;47.792;10.616;2023-05-02T11:57:40;13.63;;;12.20;;
19560;SDS011;9927;47.792;10.616;2023-05-02T12:00:08;16.08;;;12.38;;
19560;SDS011;9927;47.792;10.616;2023-05-02T12:02:42;11.50;;;10.30;;
19560;SDS011;9927;47.792;10.616;2023-05-02T12:05:12;14.88;;;11.70;;
19560;SDS011;9927;47.792;10.616;2023-05-02T12:07:44;11.75;;;10.63;;
19560;SDS011;9927;47.792;10.616;2023-05-02T12:10:12;20.25;;;14.32;;
19560;SDS011;9927;47.792;10.616;2023-05-02T12:12:41;13.18;;;11.98;;
19560;SDS011;9927;47.792;10.616;2023-05-02T12:15:10;18.45;;;14.15;;
19560;SDS011;9927;47.792;10.616;2023-05-02T12:17:41;16.80;;;11.93;;
19560;SDS011;9927;47.792;10.616;2023-05-02T12:20:11;18.83;;;13.50;;
19560;SDS011;9927;47.792;10.616;2023-05-02T12:22:38;18.40;;;13.73;;
19560;SDS011;9927;47.792;10.616;2023-05-02T12:25:06;12.50;;;10.68;;
19560;SDS011;9927;47.792;10.616;2023-05-02T12:27:34;13.23;;;10.32;;
19560;SDS011;9927;47.792;10.616;2023-05-02T12:30:01;14.85;;;11.85;;
19560;SDS011;9927;47.792;10.616;2023-05-02T12:32:30;13.63;;;12.15;;
19560;SDS011;9927;47.792;10.616;2023-05-02T12:34:59;16.52;;;13.45;;
19560;SDS011;9927;47.792;10.616;2023-05-02T12:37:29;15.70;;;12.57;;
19560;SDS011;9927;47.792;10.616;2023-05-02T12:39:56;19.25;;;13.60;;
19560;SDS011;9927;47.792;10.616;2023-05-02T12:42:24;17.20;;;13.00;;
19560;SDS011;9927;47.792;10.616;2023-05-02T12:44:52;15.50;;;13.68;;
19560;SDS011;9927;47.792;10.616;2023-05-02T12:47:20;14.75;;;12.98;;
19560;SDS011;9927;47.792;10.616;2023-05-02T12:52:19;15.05;;;13.48;;
19560;SDS011;9927;47.792;10.616;2023-05-02T12:55:20;12.05;;;10.75;;
19560;SDS011;9927;47.792;10.616;2023-05-02T12:57:59;13.82;;;12.13;;
19560;SDS011;9927;47.792;10.616;2023-05-02T13:00:31;15.18;;;12.55;;
19560;SDS011;9927;47.792;10.616;2023-05-02T13:03:00;10.77;;;9.52;;
19560;SDS011;9927;47.792;10.616;2023-05-02T13:05:28;12.32;;;10.95;;
19560;SDS011;9927;47.792;10.616;2023-05-02T13:07:55;15.15;;;11.43;;
19560;SDS011;9927;47.792;10.616;2023-05-02T13:10:24;13.85;;;11.57;;
19560;SDS011;9927;47.792;10.616;2023-05-02T13:12:52;10.60;;;9.55;;
19560;SDS011;9927;47.792;10.616;2023-05-02T13:15:20;11.05;;;10.05;;
19560;SDS011;9927;47.792;10.616;2023-05-02T13:17:48;15.57;;;12.60;;
19560;SDS011;9927;47.792;10.616;2023-05-02T13:20:17;14.88;;;10.35;;
19560;SDS011;9927;47.792;10.616;2023-05-02T13:22:45;11.25;;;9.50;;
19560;SDS011;9927;47.792;10.616;2023-05-02T13:25:12;10.98;;;9.88;;
19560;SDS011;9927;47.792;10.616;2023-05-02T13:27:39;11.52;;;10.43;;
19560;SDS011;9927;47.792;10.616;2023-05-02T13:30:07;11.40;;;10.30;;
19560;SDS011;9927;47.792;10.616;2023-05-02T13:32:36;10.00;;;9.00;;
19560;SDS011;9927;47.792;10.616;2023-05-02T13:35:04;10.18;;;9.05;;
19560;SDS011;9927;47.792;10.616;2023-05-02T13:37:32;8.73;;;8.00;;
19560;SDS011;9927;47.792;10.616;2023-05-02T13:39:59;9.80;;;8.80;;
19560;SDS011;9927;47.792;10.616;2023-05-02T13:42:27;9.27;;;7.65;;
19560;SDS011;9927;47.792;10.616;2023-05-02T13:44:54;8.85;;;7.93;;
19560;SDS011;9927;47.792;10.616;2023-05-02T13:47:22;8.38;;;7.57;;
19560;SDS011;9927;47.792;10.616;2023-05-02T13:49:49;7.03;;;6.43;;
19560;SDS011;9927;47.792;10.616;2023-05-02T13:52:17;7.22;;;6.57;;
19560;SDS011;9927;47.792;10.616;2023-05-02T13:54:44;6.75;;;6.15;;
19560;SDS011;9927;47.792;10.616;2023-05-02T13:57:11;7.15;;;6.55;;
19560;SDS011;9927;47.792;10.616;2023-05-02T13:59:38;6.38;;;5.95;;
19560;SDS011;9927;47.792;10.616;2023-05-02T14:02:06;8.45;;;7.57;;
19560;SDS011;9927;47.792;10.616;2023-05-02T14:04:33;7.65;;;6.95;;
19560;SDS011;9927;47.792;10.616;2023-05-02T14:07:04;7.38;;;6.78;;
19560;SDS011;9927;47.792;10.616;2023-05-02T14:09:32;7.65;;;6.88;;
19560;SDS011;9927;47.792;10.616;2023-05-02T14:11:59;8.30;;;7.32;;
19560;SDS011;9927;47.792;10.616;2023-05-02T14:14:27;7.40;;;6.70;;
19560;SDS011;9927;47.792;10.616;2023-05-02T14:16:54;7.45;;;6.75;;
19560;SDS011;9927;47.792;10.616;2023-05-02T14:19:22;6.28;;;5.88;;
19560;SDS011;9927;47.792;10.616;2023-05-02T14:21:49;7.07;;;6.47;;
19560;SDS011;9927;47.792;10.616;2023-05-02T14:24:16;7.47;;;6.70;;
19560;SDS011;9927;47.792;10.616;2023-05-02T14:26:44;7.03;;;6.43;;
19560;SDS011;9927;47.792;10.616;2023-05-02T14:29:15;7.38;;;6.60;;
19560;SDS011;9927;47.792;10.616;2023-05-02T14:31:44;7.28;;;6.63;;
19560;SDS011;9927;47.792;10.616;2023-05-02T14:34:11;7.70;;;6.93;;
19560;SDS011;9927;47.792;10.616;2023-05-02T14:36:39;8.23;;;5.95;;
19560;SDS011;9927;47.792;10.616;2023-05-02T14:39:06;6.80;;;6.10;;
19560;SDS011;9927;47.792;10.616;2023-05-02T14:41:33;9.23;;;7.30;;
19560;SDS011;9927;47.792;10.616;2023-05-02T14:44:00;7.05;;;6.35;;
19560;SDS011;9927;47.792;10.616;2023-05-02T14:46:27;10.40;;;7.45;;
19560;SDS011;9927;47.792;10.616;2023-05-02T14:48:55;6.40;;;5.80;;
19560;SDS011;9927;47.792;10.616;2023-05-02T14:51:22;6.55;;;5.95;;
19560;SDS011;9927;47.792;10.616;2023-05-02T14:53:49;6.25;;;5.65;;
19560;SDS011;9927;47.792;10.616;2023-05-02T14:56:16;6.57;;;5.97;;
19560;SDS011;9927;47.792;10.616;2023-05-02T14:58:44;14.15;;;7.78;;
19560;SDS011;9927;47.792;10.616;2023-05-02T15:01:16;7.38;;;6.65;;
19560;SDS011;9927;47.792;10.616;2023-05-02T15:03:44;7.20;;;6.03;;
19560;SDS011;9927;47.792;10.616;2023-05-02T15:06:31;9.25;;;6.72;;
19560;SDS011;9927;47.792;10.616;2023-05-02T15:08:58;6.97;;;6.30;;
19560;SDS011;9927;47.792;10.616;2023-05-02T15:11:27;7.47;;;6.78;;
19560;SDS011;9927;47.792;10.616;2023-05-02T15:13:54;5.82;;;5.32;;
19560;SDS011;9927;47.792;10.616;2023-05-02T15:16:24;6.70;;;5.97;;
19560;SDS011;9927;47.792;10.616;2023-05-02T15:18:55;6.65;;;6.05;;
19560;SDS011;9927;47.792;10.616;2023-05-02T15:21:22;6.53;;;5.95;;
19560;SDS011;9927;47.792;10.616;2023-05-02T15:23:49;6.85;;;6.07;;
19560;SDS011;9927;47.792;10.616;2023-05-02T15:26:17;7.70;;;6.95;;
19560;SDS011;9927;47.792;10.616;2023-05-02T15:28:44;8.27;;;7.15;;
19560;SDS011;9927;47.792;10.616;2023-05-02T15:31:11;8.82;;;6.97;;
19560;SDS011;9927;47.792;10.616;2023-05-02T15:33:39;7.28;;;6.10;;
19560;SDS011;9927;47.792;10.616;2023-05-02T15:36:06;11.80;;;7.32;;
19560;SDS011;9927;47.792;10.616;2023-05-02T15:38:34;8.93;;;6.85;;
19560;SDS011;9927;47.792;10.616;2023-05-02T15:41:05;6.28;;;5.82;;
19560;SDS011;9927;47.792;10.616;2023-05-02T15:43:33;8.15;;;7.30;;
19560;SDS011;9927;47.792;10.616;2023-05-02T15:46:00;8.80;;;7.40;;
19560;SDS011;9927;47.792;10.616;2023-05-02T15:48:28;8.52;;;7.20;;
19560;SDS011;9927;47.792;10.616;2023-05-02T15:50:56;7.22;;;6.53;;
19560;SDS011;9927;47.792;10.616;2023-05-02T15:53:24;7.55;;;6.75;;
19560;SDS011;9927;47.792;10.616;2023-05-02T15:55:51;8.40;;;7.18;;
19560;SDS011;9927;47.792;10.616;2023-05-02T15:58:18;7.35;;;6.65;;
19560;SDS011;9927;47.792;10.616;2023-05-02T16:00:46;8.15;;;6.70;;
19560;SDS011;9927;47.792;10.616;2023-05-02T16:03:13;8.68;;;6.80;;
19560;SDS011;9927;47.792;10.616;2023-05-02T16:05:41;8.68;;;7.88;;
19560;SDS011;9927;47.792;10.616;2023-05-02T16:08:08;9.68;;;7.40;;
19560;SDS011;9927;47.792;10.616;2023-05-02T16:10:36;11.38;;;8.35;;
19560;SDS011;9927;47.792;10.616;2023-05-02T16:13:05;7.00;;;6.30;;
19560;SDS011;9927;47.792;10.616;2023-05-02T16:15:33;7.53;;;6.82;;
19560;SDS011;9927;47.792;10.616;2023-05-02T16:18:00;8.40;;;7.05;;
19560;SDS011;9927;47.792;10.616;2023-05-02T16:20:27;13.25;;;7.82;;
19560;SDS011;9927;47.792;10.616;2023-05-02T16:22:55;8.48;;;6.93;;
19560;SDS011;9927;47.792;10.616;2023-05-02T16:25:22;8.43;;;6.95;;
19560;SDS011;9927;47.792;10.616;2023-05-02T16:27:49;8.05;;;6.85;;
19560;SDS011;9927;47.792;10.616;2023-05-02T16:30:16;8.43;;;6.53;;
19560;SDS011;9927;47.792;10.616;2023-05-02T16:32:44;5.80;;;5.22;;
19560;SDS011;9927;47.792;10.616;2023-05-02T16:35:11;5.40;;;4.95;;
19560;SDS011;9927;47.792;10.616;2023-05-02T16:37:39;5.85;;;5.22;;
19560;SDS011;9927;47.792;10.616;2023-05-02T16:40:07;6.65;;;5.18;;
19560;SDS011;9927;47.792;10.616;2023-05-02T16:42:36;5.80;;;5.18;;
19560;SDS011;9927;47.792;10.616;2023-05-02T16:45:04;6.00;;;5.40;;
19560;SDS011;9927;47.792;10.616;2023-05-02T16:47:32;7.05;;;5.80;;
19560;SDS011;9927;47.792;10.616;2023-05-02T16:50:01;6.75;;;6.05;;
19560;SDS011;9927;47.792;10.616;2023-05-02T16:52:29;6.05;;;5.57;;
19560;SDS011;9927;47.792;10.616;2023-05-02T16:54:56;7.07;;;6.38;;
19560;SDS011;9927;47.792;10.616;2023-05-02T16:57:23;8.38;;;6.35;;
19560;SDS011;9927;47.792;10.616;2023-05-02T16:59:51;9.95;;;6.70;;
19560;SDS011;9927;47.792;10.616;2023-05-02T17:02:18;8.85;;;6.72;;
19560;SDS011;9927;47.792;10.616;2023-05-02T17:04:48;7.75;;;5.97;;
19560;SDS011;9927;47.792;10.616;2023-05-02T17:07:16;7.55;;;6.05;;
19560;SDS011;9927;47.792;10.616;2023-05-02T17:09:43;7.03;;;6.07;;
19560;SDS011;9927;47.792;10.616;2023-05-02T17:12:11;7.53;;;5.47;;
19560;SDS011;9927;47.792;10.616;2023-05-02T17:14:39;11.07;;;7.35;;
19560;SDS011;9927;47.792;10.616;2023-05-02T17:17:08;8.95;;;6.90;;
19560;SDS011;9927;47.792;10.616;2023-05-02T17:19:36;9.55;;;7.57;;
19560;SDS011;9927;47.792;10.616;2023-05-02T17:22:03;9.25;;;7.13;;
19560;SDS011;9927;47.792;10.616;2023-05-02T17:24:32;8.52;;;6.97;;
19560;SDS011;9927;47.792;10.616;2023-05-02T17:27:00;8.02;;;7.32;;
19560;SDS011;9927;47.792;10.616;2023-05-02T17:29:28;8.50;;;6.88;;
19560;SDS011;9927;47.792;10.616;2023-05-02T17:31:55;8.95;;;7.53;;
19560;SDS011;9927;47.792;10.616;2023-05-02T17:34:25;9.38;;;7.30;;
19560;SDS011;9927;47.792;10.616;2023-05-02T17:36:55;9.38;;;7.35;;
19560;SDS011;9927;47.792;10.616;2023-05-02T17:39:23;11.63;;;8.30;;
19560;SDS011;9927;47.792;10.616;2023-05-02T17:41:50;9.80;;;7.57;;
19560;SDS011;9927;47.792;10.616;2023-05-02T17:44:17;9.52;;;7.88;;
19560;SDS011;9927;47.792;10.616;2023-05-02T17:46:44;11.27;;;8.70;;
19560;SDS011;9927;47.792;10.616;2023-05-02T17:49:12;11.32;;;8.63;;
19560;SDS011;9927;47.792;10.616;2023-05-02T17:51:40;14.18;;;8.30;;
19560;SDS011;9927;47.792;10.616;2023-05-02T17:54:07;15.48;;;9.52;;
19560;SDS011;9927;47.792;10.616;2023-05-02T17:56:34;9.38;;;8.13;;
19560;SDS011;9927;47.792;10.616;2023-05-02T17:59:03;10.65;;;8.95;;
19560;SDS011;9927;47.792;10.616;2023-05-02T18:01:33;10.90;;;8.70;;
19560;SDS011;9927;47.792;10.616;2023-05-02T18:04:01;14.02;;;10.70;;
19560;SDS011;9927;47.792;10.616;2023-05-02T18:06:29;16.23;;;11.75;;
19560;SDS011;9927;47.792;10.616;2023-05-02T18:09:00;21.88;;;14.55;;
19560;SDS011;9927;47.792;10.616;2023-05-02T18:11:27;15.00;;;10.70;;